createdAt,value
2022-09-23T00:01:27.649Z,95601.20
2022-09-23T00:03:56.577Z,95596.52
2022-09-23T00:06:25.413Z,95596.86
2022-09-23T00:08:54.472Z,95595.75
2022-09-23T00:11:25.706Z,95585.62
2022-09-23T00:13:57.135Z,95587.14
2022-09-23T00:16:32.814Z,95583.17
2022-09-23T00:19:02.812Z,95586.34
2022-09-23T00:21:31.090Z,95586.14
2022-09-23T00:23:59.581Z,95586.20
2022-09-23T00:26:28.024Z,95580.17
2022-09-23T00:28:56.226Z,95584.72
2022-09-23T00:31:27.073Z,95583.88
2022-09-23T00:34:02.502Z,95584.42
2022-09-23T00:36:32.550Z,95581.27
2022-09-23T00:39:00.735Z,95579.52
2022-09-23T00:41:29.075Z,95580.09
2022-09-23T00:44:00.068Z,95579.70
2022-09-23T00:46:45.934Z,95580.04
2022-09-23T00:49:25.315Z,95580.58
2022-09-23T00:52:06.420Z,95578.54
2022-09-23T00:54:34.669Z,95583.81
2022-09-23T00:57:04.045Z,95588.89
2022-09-23T00:59:32.987Z,95589.02
2022-09-23T01:02:03.101Z,95591.92
2022-09-23T01:04:32.269Z,95590.52
2022-09-23T01:07:00.284Z,95587.99
2022-09-23T01:09:28.941Z,95586.88
2022-09-23T01:12:10.264Z,95588.84
2022-09-23T01:15:05.375Z,95587.12
2022-09-23T01:17:51.823Z,95590.10
2022-09-23T01:20:29.028Z,95588.95
2022-09-23T01:23:26.693Z,95592.24
2022-09-23T01:26:28.634Z,95592.82
2022-09-23T01:29:15.486Z,95596.67
2022-09-23T01:31:55.344Z,95594.15
2022-09-23T01:34:44.631Z,95595.60
2022-09-23T01:37:48.225Z,95601.08
2022-09-23T01:40:16.448Z,95599.83
2022-09-23T01:43:09.486Z,95600.41
2022-09-23T01:45:47.348Z,95602.27
2022-09-23T01:48:28.765Z,95603.45
2022-09-23T01:51:03.148Z,95604.11
2022-09-23T01:53:46.209Z,95602.17
2022-09-23T01:56:20.831Z,95601.86
2022-09-23T01:58:56.109Z,95600.04
2022-09-23T02:01:41.878Z,95603.82
2022-09-23T02:04:22.976Z,95607.19
2022-09-23T02:07:10.392Z,95606.71
2022-09-23T02:09:45.085Z,95605.98
2022-09-23T02:12:21.302Z,95606.88
2022-09-23T02:14:57.354Z,95610.87
2022-09-23T02:17:35.631Z,95608.48
2022-09-23T02:20:07.323Z,95607.63
2022-09-23T02:23:00.043Z,95610.70
2022-09-23T02:25:38.097Z,95612.47
2022-09-23T02:28:19.416Z,95609.14
2022-09-23T02:30:59.137Z,95608.27
2022-09-23T02:33:38.280Z,95606.23
2022-09-23T02:36:26.216Z,95610.77
2022-09-23T02:38:58.915Z,95610.08
2022-09-23T02:41:26.916Z,95608.67
2022-09-23T02:44:10.559Z,95607.12
2022-09-23T02:46:40.367Z,95607.55
2022-09-23T02:49:12.778Z,95607.33
2022-09-23T02:51:41.865Z,95605.52
2022-09-23T02:54:15.161Z,95606.65
2022-09-23T02:56:43.854Z,95609.69
2022-09-23T02:59:13.213Z,95604.30
2022-09-23T03:01:47.827Z,95607.41
2022-09-23T03:04:18.188Z,95605.34
2022-09-23T03:06:59.191Z,95611.92
2022-09-23T03:09:53.330Z,95617.16
2022-09-23T03:12:43.641Z,95615.29
2022-09-23T03:15:37.415Z,95620.58
2022-09-23T03:18:11.304Z,95622.21
2022-09-23T03:20:52.830Z,95627.35
2022-09-23T03:23:27.439Z,95623.64
2022-09-23T03:26:01.200Z,95620.81
2022-09-23T03:28:30.404Z,95617.73
2022-09-23T03:31:02.029Z,95617.95
2022-09-23T03:33:31.484Z,95617.23
2022-09-23T03:36:29.361Z,95624.77
2022-09-23T03:39:15.033Z,95622.66
2022-09-23T03:41:51.387Z,95616.70
2022-09-23T03:44:21.589Z,95614.86
2022-09-23T03:46:53.199Z,95617.06
2022-09-23T03:49:33.037Z,95614.30
2022-09-23T03:52:02.620Z,95611.59
2022-09-23T03:54:30.850Z,95609.54
2022-09-23T03:57:00.420Z,95606.67
2022-09-23T03:59:30.559Z,95606.52
2022-09-23T04:01:59.746Z,95602.95
2022-09-23T04:04:29.031Z,95598.09
2022-09-23T04:06:57.251Z,95600.10
2022-09-23T04:09:25.518Z,95600.80
2022-09-23T04:11:54.395Z,95601.63
2022-09-23T04:14:23.900Z,95603.73
2022-09-23T04:16:52.706Z,95607.61
2022-09-23T04:19:21.200Z,95608.35
2022-09-23T04:21:49.843Z,95606.16
2022-09-23T04:24:18.144Z,95608.70
2022-09-23T04:26:46.222Z,95606.86
2022-09-23T04:29:14.353Z,95611.40
2022-09-23T04:31:42.646Z,95609.65
2022-09-23T04:34:11.549Z,95610.23
2022-09-23T04:36:40.055Z,95613.07
2022-09-23T04:39:08.343Z,95605.63
2022-09-23T04:41:37.590Z,95607.36
2022-09-23T04:44:05.680Z,95603.54
2022-09-23T04:46:34.340Z,95603.23
2022-09-23T04:49:02.563Z,95607.04
2022-09-23T04:51:33.949Z,95603.55
2022-09-23T04:54:02.223Z,95604.20
2022-09-23T04:56:35.386Z,95606.14
2022-09-23T04:59:11.549Z,95611.40
2022-09-23T05:01:42.307Z,95608.87
2022-09-23T05:04:14.743Z,95609.11
2022-09-23T05:07:02.888Z,95611.30
2022-09-23T05:09:37.161Z,95611.79
2022-09-23T05:12:06.946Z,95610.28
2022-09-23T05:14:37.833Z,95611.75
2022-09-23T05:17:16.423Z,95610.96
2022-09-23T05:19:44.805Z,95611.98
2022-09-23T05:22:13.007Z,95612.58
2022-09-23T05:24:41.609Z,95607.92
2022-09-23T05:27:09.943Z,95606.20
2022-09-23T05:29:39.445Z,95608.04
2022-09-23T05:32:08.200Z,95609.45
2022-09-23T05:34:37.063Z,95610.17
2022-09-23T05:37:05.677Z,95613.55
2022-09-23T05:39:38.382Z,95615.80
2022-09-23T05:42:40.053Z,95616.94
2022-09-23T05:45:01.210Z,95616.30
2022-09-23T05:47:45.169Z,95611.98
2022-09-23T05:50:19.943Z,95613.87
2022-09-23T08:55:39.621Z,95590.71
2022-09-23T09:22:43.410Z,95587.10
2022-09-23T09:25:41.533Z,95589.27
2022-09-23T09:28:38.436Z,95585.44
2022-09-23T09:31:26.967Z,95585.87
2022-09-23T09:33:58.871Z,95588.34
2022-09-23T09:36:43.903Z,95588.24
2022-09-23T09:39:15.742Z,95588.38
2022-09-23T09:41:49.649Z,95589.21
2022-09-23T09:44:31.940Z,95592.20
2022-09-23T09:47:09.699Z,95592.13
2022-09-23T09:49:54.338Z,95592.15
2022-09-23T09:52:23.124Z,95593.45
2022-09-23T09:54:53.174Z,95593.44
2022-09-23T09:57:32.158Z,95589.60
2022-09-23T10:00:36.214Z,95597.52
2022-09-23T10:03:15.671Z,95593.34
2022-09-23T10:05:44.020Z,95592.41
2022-09-23T10:08:35.463Z,95592.08
2022-09-23T10:11:17.188Z,95595.79
2022-09-23T10:14:18.227Z,95596.89
2022-09-23T10:17:06.277Z,95600.78
2022-09-23T10:19:44.383Z,95599.85
2022-09-23T10:22:22.171Z,95599.54
2022-09-23T10:24:54.890Z,95596.42
2022-09-23T10:27:32.425Z,95588.70
2022-09-23T10:30:14.234Z,95584.13
2022-09-23T10:32:46.450Z,95581.06
2022-09-23T10:35:24.886Z,95577.00
2022-09-23T10:37:57.252Z,95576.66
2022-09-23T10:40:57.020Z,95571.26
2022-09-23T10:43:47.123Z,95571.08
2022-09-23T10:46:38.636Z,95569.53
2022-09-23T10:49:51.433Z,95566.44
2022-09-23T10:52:49.744Z,95568.48
2022-09-23T10:55:41.033Z,95568.17
2022-09-23T10:58:58.497Z,95567.39
2022-09-23T11:01:30.272Z,95562.87
2022-09-23T11:04:37.177Z,95566.02
2022-09-23T11:07:21.654Z,95567.66
2022-09-23T11:10:29.280Z,95564.11
2022-09-23T11:13:24.872Z,95561.89
2022-09-23T11:16:24.902Z,95559.21
2022-09-23T11:19:33.554Z,95552.24
2022-09-23T11:22:03.085Z,95559.83
2022-09-23T11:24:58.856Z,95553.98
2022-09-23T11:27:35.814Z,95557.27
2022-09-23T11:30:18.505Z,95555.59
2022-09-23T11:33:16.496Z,95556.32
2022-09-23T11:35:56.082Z,95548.36
2022-09-23T11:38:48.487Z,95552.39
2022-09-23T11:41:34.705Z,95553.38
2022-09-23T11:44:31.198Z,95553.63
2022-09-23T11:47:04.263Z,95552.33
2022-09-23T11:49:39.533Z,95551.84
2022-09-23T11:52:29.732Z,95557.27
2022-09-23T11:55:18.915Z,95556.90
2022-09-23T11:58:23.188Z,95558.65
2022-09-23T12:01:45.565Z,95558.89
2022-09-23T12:04:53.975Z,95561.77
2022-09-23T12:07:54.719Z,95565.21
2022-09-23T12:10:36.589Z,95568.31
2022-09-23T12:13:18.379Z,95566.85
2022-09-23T12:15:52.423Z,95561.39
2022-09-23T12:18:49.623Z,95553.78
2022-09-23T12:21:49.683Z,95549.90
2022-09-23T12:24:37.210Z,95558.80
2022-09-23T12:27:11.111Z,95562.23
2022-09-23T12:29:41.764Z,95562.65
2022-09-23T12:32:18.775Z,95566.27
2022-09-23T12:34:52.117Z,95568.60
2022-09-23T12:37:30.062Z,95565.43
2022-09-23T12:40:07.696Z,95562.20
2022-09-23T12:42:44.332Z,95564.88
2022-09-23T12:45:35.168Z,95561.31
2022-09-23T12:48:26.705Z,95559.39
2022-09-23T12:51:03.857Z,95561.43
2022-09-23T12:53:35.165Z,95562.33
2022-09-23T12:56:21.937Z,95562.84
2022-09-23T12:58:51.127Z,95560.80
2022-09-23T13:01:22.760Z,95558.91
2022-09-23T13:04:12.862Z,95559.80
2022-09-23T13:06:53.851Z,95557.90
2022-09-23T13:09:37.574Z,95559.35
2022-09-23T13:12:13.612Z,95558.88
2022-09-23T13:14:46.304Z,95552.89
2022-09-23T13:17:44.636Z,95555.12
2022-09-23T13:20:21.891Z,95549.56
2022-09-23T13:22:50.110Z,95549.14
2022-09-23T13:25:35.282Z,95548.89
2022-09-23T13:28:13.698Z,95550.31
2022-09-23T13:30:50.443Z,95547.84
2022-09-23T13:33:49.166Z,95546.57
2022-09-23T13:36:19.988Z,95549.33
2022-09-23T13:38:48.498Z,95545.92
2022-09-23T13:41:19.268Z,95542.73
2022-09-23T13:44:00.453Z,95540.43
2022-09-23T13:46:35.284Z,95539.89
2022-09-23T13:49:03.607Z,95536.91
2022-09-23T13:51:35.159Z,95528.52
2022-09-23T13:54:06.154Z,95524.95
2022-09-23T13:56:36.766Z,95517.80
2022-09-23T13:59:20.008Z,95519.60
2022-09-23T14:01:48.682Z,95519.27
2022-09-23T14:04:25.255Z,95520.85
2022-09-23T14:06:54.720Z,95519.19
2022-09-23T14:09:27.687Z,95518.97
2022-09-23T14:11:59.850Z,95518.97
2022-09-23T14:14:30.477Z,95517.97
2022-09-23T14:16:59.563Z,95518.20
2022-09-23T14:19:27.848Z,95519.95
2022-09-23T14:21:56.838Z,95523.95
2022-09-23T14:24:36.784Z,95529.99
2022-09-23T14:27:07.884Z,95528.27
2022-09-23T14:29:42.259Z,95529.80
2022-09-23T14:32:27.743Z,95533.28
2022-09-23T14:35:03.851Z,95534.79
2022-09-23T14:37:55.294Z,95535.59
2022-09-23T14:40:33.825Z,95539.29
2022-09-23T14:43:25.866Z,95537.72
2022-09-23T14:45:59.174Z,95549.08
2022-09-23T14:48:33.701Z,95557.04
2022-09-23T14:51:06.491Z,95558.29
2022-09-23T14:53:40.796Z,95563.14
2022-09-23T14:56:11.762Z,95564.45
2022-09-23T14:58:50.960Z,95567.36
2022-09-23T15:01:32.922Z,95570.89
2022-09-23T15:04:21.533Z,95574.20
2022-09-23T15:06:56.723Z,95573.83
2022-09-23T15:09:39.088Z,95573.46
2022-09-23T15:12:13.846Z,95574.09
2022-09-23T15:14:51.092Z,95571.14
2022-09-23T15:17:32.792Z,95572.71
2022-09-23T15:20:05.608Z,95573.60
2022-09-23T15:22:51.289Z,95564.38
2022-09-23T15:25:20.781Z,95567.07
2022-09-23T15:27:56.484Z,95563.95
2022-09-23T15:30:25.151Z,95564.77
2022-09-23T15:32:54.001Z,95570.03
2022-09-23T15:35:26.763Z,95569.68
2022-09-23T15:38:01.860Z,95573.38
2022-09-23T15:40:32.961Z,95574.48
2022-09-23T15:43:20.597Z,95572.45
2022-09-23T15:45:54.064Z,95569.46
2022-09-23T15:48:26.115Z,95567.48
2022-09-23T15:50:55.332Z,95566.87
2022-09-23T15:53:28.489Z,95568.80
2022-09-23T15:55:58.643Z,95572.70
2022-09-23T15:58:27.751Z,95571.02
2022-09-23T16:00:57.238Z,95567.36
2022-09-23T16:03:30.392Z,95568.34
2022-09-23T16:06:02.521Z,95567.41
2022-09-23T16:08:33.295Z,95565.73
2022-09-23T16:11:04.047Z,95565.85
2022-09-23T16:13:32.256Z,95567.38
2022-09-23T16:16:00.579Z,95571.07
2022-09-23T16:18:29.199Z,95571.41
2022-09-23T16:20:59.159Z,95569.14
2022-09-23T16:23:37.231Z,95570.03
2022-09-23T16:26:18.074Z,95565.41
2022-09-23T16:28:48.302Z,95564.55
2022-09-23T16:31:16.934Z,95565.23
2022-09-23T16:33:46.490Z,95567.46
2022-09-23T16:36:25.470Z,95568.47
2022-09-23T16:38:57.519Z,95566.55
2022-09-23T16:41:29.318Z,95573.05
2022-09-23T16:44:00.755Z,95574.75
2022-09-23T16:46:29.847Z,95577.82
2022-09-23T16:48:59.116Z,95580.08
2022-09-23T16:51:29.993Z,95578.88
2022-09-23T16:53:59.574Z,95577.59
2022-09-23T16:56:29.429Z,95573.77
2022-09-23T16:58:57.665Z,95571.83
2022-09-23T17:01:47.229Z,95570.01
2022-09-23T17:04:18.478Z,95567.70
2022-09-23T17:06:51.757Z,95569.39
2022-09-23T17:09:26.304Z,95567.38
2022-09-23T17:12:13.891Z,95570.73
2022-09-23T17:14:42.059Z,95571.83
2022-09-23T17:17:10.214Z,95578.64
2022-09-23T17:19:41.507Z,95575.08
2022-09-23T17:22:10.199Z,95579.70
2022-09-23T17:24:38.398Z,95582.52
2022-09-23T17:27:06.998Z,95582.65
2022-09-23T17:29:35.184Z,95578.27
2022-09-23T17:32:05.039Z,95577.76
2022-09-23T17:34:33.591Z,95580.14
2022-09-23T17:37:02.693Z,95580.75
2022-09-23T17:39:31.777Z,95582.80
2022-09-23T17:42:00.189Z,95584.02
2022-09-23T17:44:28.457Z,95585.90
2022-09-23T17:46:56.793Z,95587.05
2022-09-23T17:49:25.209Z,95587.42
2022-09-23T17:51:53.864Z,95592.59
2022-09-23T17:54:21.931Z,95601.90
2022-09-23T17:56:50.131Z,95604.42
2022-09-23T17:59:18.362Z,95607.71
2022-09-23T18:01:46.792Z,95608.48
2022-09-23T18:04:15.142Z,95610.57
2022-09-23T18:06:43.346Z,95613.02
2022-09-23T18:09:11.568Z,95608.13
2022-09-23T18:11:43.309Z,95611.05
2022-09-23T18:14:17.622Z,95607.14
2022-09-23T18:16:49.987Z,95606.16
2022-09-23T18:19:20.483Z,95603.84
2022-09-23T18:21:51.537Z,95597.86
2022-09-23T18:24:35.971Z,95594.16
2022-09-23T18:27:06.654Z,95595.30
2022-09-23T18:29:35.319Z,95596.05
2022-09-23T18:32:04.051Z,95593.42
2022-09-23T18:34:32.989Z,95592.44
2022-09-23T18:37:01.158Z,95590.81
2022-09-23T18:39:29.519Z,95593.17
2022-09-23T18:41:57.591Z,95588.23
2022-09-23T18:44:25.851Z,95589.99
2022-09-23T18:46:53.934Z,95590.90
2022-09-23T18:49:41.013Z,95592.54
2022-09-23T18:52:09.295Z,95596.99
2022-09-23T18:54:37.488Z,95595.38
2022-09-23T18:57:05.775Z,95593.66
2022-09-23T18:59:33.958Z,95592.41
2022-09-23T19:02:02.700Z,95591.02
2022-09-23T19:04:31.022Z,95595.58
2022-09-23T19:06:59.216Z,95591.68
2022-09-23T19:09:27.396Z,95596.70
2022-09-23T19:11:55.569Z,95599.16
2022-09-23T19:14:23.909Z,95599.21
2022-09-23T19:16:52.412Z,95601.91
2022-09-23T19:19:20.624Z,95602.33
2022-09-23T19:21:48.730Z,95598.55
2022-09-23T19:24:20.107Z,95596.98
2022-09-23T19:26:48.923Z,95602.55
2022-09-23T19:29:21.925Z,95603.93
2022-09-23T19:31:51.297Z,95605.35
2022-09-23T19:34:26.027Z,95605.61
2022-09-23T19:36:57.458Z,95602.70
2022-09-23T19:39:31.432Z,95605.59
2022-09-23T19:41:59.522Z,95603.67
2022-09-23T19:44:28.100Z,95604.64
2022-09-23T19:46:57.430Z,95605.67
2022-09-23T19:49:26.087Z,95611.02
2022-09-23T19:51:55.988Z,95611.12
2022-09-23T19:54:27.655Z,95610.55
2022-09-23T19:56:56.205Z,95612.23
2022-09-23T19:59:26.595Z,95608.05
2022-09-23T20:01:55.318Z,95612.98
2022-09-23T20:04:23.553Z,95612.85
2022-09-23T20:06:51.873Z,95615.80
2022-09-23T20:09:20.209Z,95615.20
2022-09-23T20:11:48.326Z,95619.85
2022-09-23T20:14:19.149Z,95617.13
2022-09-23T20:16:47.468Z,95614.80
2022-09-23T20:19:15.811Z,95618.90
2022-09-23T20:21:44.104Z,95620.21
2022-09-23T20:24:13.303Z,95618.00
2022-09-23T20:27:00.522Z,95621.37
2022-09-23T20:29:28.971Z,95623.01
2022-09-23T20:31:58.761Z,95621.09
2022-09-23T20:34:30.003Z,95623.21
2022-09-23T20:36:59.470Z,95621.70
2022-09-23T20:39:28.454Z,95618.83
2022-09-23T20:41:56.616Z,95619.32
2022-09-23T20:44:25.271Z,95617.92
2022-09-23T20:46:53.493Z,95613.86
2022-09-23T20:49:22.809Z,95615.66
2022-09-23T20:51:51.187Z,95612.18
2022-09-23T20:54:19.845Z,95611.40
2022-09-23T20:56:48.258Z,95609.92
2022-09-23T20:59:18.401Z,95607.31
2022-09-23T21:01:46.810Z,95608.90
2022-09-23T21:04:15.444Z,95605.98
2022-09-23T21:06:43.596Z,95612.58
2022-09-23T21:09:11.715Z,95610.13
2022-09-23T21:11:39.986Z,95605.52
2022-09-23T21:14:08.565Z,95604.55
2022-09-23T21:16:36.918Z,95605.91
2022-09-23T21:19:08.253Z,95607.96
2022-09-23T21:21:36.755Z,95603.46
2022-09-23T21:24:32.533Z,95599.70
2022-09-23T21:26:53.496Z,95611.20
2022-09-23T21:29:21.901Z,95604.84
2022-09-23T21:31:50.191Z,95610.25
2022-09-23T21:34:19.605Z,95613.11
2022-09-23T21:36:48.407Z,95614.83
2022-09-23T21:39:16.771Z,95617.86
2022-09-23T21:41:45.462Z,95615.40
2022-09-23T21:44:14.022Z,95619.27
2022-09-23T21:46:42.432Z,95616.72
2022-09-23T21:49:10.705Z,95617.94
2022-09-23T21:51:41.361Z,95616.77
2022-09-23T21:54:14.565Z,95615.55
2022-09-23T21:56:43.936Z,95613.46
2022-09-23T21:59:12.611Z,95619.01
2022-09-23T22:01:48.358Z,95622.44
2022-09-23T22:04:20.767Z,95617.02
2022-09-23T22:06:51.632Z,95618.33
2022-09-23T22:09:21.281Z,95619.16
2022-09-23T22:12:09.992Z,95621.52
2022-09-23T22:14:39.232Z,95623.39
2022-09-23T22:17:10.693Z,95622.63
2022-09-23T22:19:45.763Z,95621.27
2022-09-23T22:22:17.800Z,95617.36
2022-09-23T22:24:48.281Z,95613.13
2022-09-23T22:27:20.234Z,95611.93
2022-09-23T22:30:07.463Z,95611.08
2022-09-23T22:32:41.780Z,95612.63
2022-09-23T22:35:18.011Z,95608.77
2022-09-23T22:37:48.191Z,95610.81
2022-09-23T22:40:16.745Z,95609.14
2022-09-23T22:42:45.978Z,95606.75
2022-09-23T22:45:14.319Z,95608.02
2022-09-23T22:47:45.670Z,95607.33
2022-09-23T22:50:14.903Z,95603.36
2022-09-23T22:52:43.986Z,95604.04
2022-09-23T22:55:14.282Z,95605.22
2022-09-23T22:57:42.544Z,95600.46
2022-09-23T23:00:12.697Z,95603.29
2022-09-23T23:02:41.887Z,95608.79
2022-09-23T23:05:10.141Z,95608.73
2022-09-23T23:07:38.545Z,95607.98
2022-09-23T23:10:10.522Z,95610.63
2022-09-23T23:12:39.645Z,95607.73
2022-09-23T23:15:12.457Z,95606.27
2022-09-23T23:17:43.686Z,95604.55
2022-09-23T23:20:12.076Z,95603.98
2022-09-23T23:22:40.231Z,95602.39
2022-09-23T23:25:09.861Z,95601.58
2022-09-23T23:27:38.082Z,95596.77
2022-09-23T23:30:07.335Z,95601.15
2022-09-23T23:32:35.571Z,95601.19
2022-09-23T23:35:04.016Z,95602.52
2022-09-23T23:37:32.120Z,95602.02
2022-09-23T23:40:00.386Z,95602.97
2022-09-23T23:42:28.669Z,95601.33
2022-09-23T23:44:56.839Z,95604.54
2022-09-23T23:47:26.500Z,95601.80
2022-09-23T23:49:54.765Z,95602.10
2022-09-23T23:52:22.939Z,95599.98
2022-09-23T23:54:51.821Z,95609.14
2022-09-23T23:57:19.919Z,95605.09
2022-09-23T23:59:48.168Z,95607.30
